Terminal Aerodrome Forecast
Issued by NWS

Current Version | Previous Version | Text Only | Print | Product List | Glossary On
Versions: 1 2 3 4 5 6 7 8 9 10 11 12 13 14
000
FTUS43 KICT 011747
TAFCNU
TAF
KCNU 011747Z 0118/0218 17018G25KT P6SM FEW050 SCT120
     FM020300 17018G25KT P6SM SCT200
     FM021000 17018G28KT P6SM VCTS BKN060CB
     FM021500 03014KT P6SM SCT050 BKN120=

USA.gov is the U.S. government's official web portal to all federal, state and local government web resources and services.